CNY8 weather

Toronto (Sunnybrook Medical Centre) Heliport
Toronto, Ontario, Canada

Public forecast

Using degrees Celsius for public forecast. Weather courtesy of forecast.io.

Closest aviation weather report (METAR) to Toronto (Sunnybrook Medical Centre) Heliport

Closest report is Billy Bishop Toronto City Centre Airport, 5.7 nm (10.6 km) S. Retrieved 2019/11/23 00:00 UTC (30 minutes ago):

CYTZ 230000Z AUTO 29014KT 9SM CLR 01/M06 A3006 RMK SLP182

Closest aviation forecast (TAF) to Toronto (Sunnybrook Medical Centre) Heliport

Closest forecast is Billy Bishop Toronto City Centre Airport, 5.7 nm (10.6 km) S. Retrieved 2019-11-23 02:42 UTC (0 seconds ago):

TAF CYTZ 230138Z 2302/2402 28008KT P6SM BKN040 TEMPO 2302/2307 SCT040 FM230700 25010KT P6SM FEW025 FM231500 23015KT P6SM SKC BECMG 2320/2322 22012KT RMK FCST BASED ON AUTO OBS NXT FCST BY 230800Z